sensor_id;sensor_type;location;lat;lon;timestamp;pressure;altitude;pressure_sealevel;temperature;humidity
55490;BME280;44029;52.956;4.772;2023-02-14T00:02:17;103684.84;;;5.50;100.00
55490;BME280;44029;52.956;4.772;2023-02-14T00:04:42;103684.97;;;5.49;100.00
55490;BME280;44029;52.956;4.772;2023-02-14T00:07:10;103690.00;;;5.43;100.00
55490;BME280;44029;52.956;4.772;2023-02-14T00:09:36;103678.97;;;5.45;100.00
55490;BME280;44029;52.956;4.772;2023-02-14T00:12:01;103672.13;;;5.41;100.00
55490;BME280;44029;52.956;4.772;2023-02-14T00:14:27;103683.56;;;5.45;100.00
55490;BME280;44029;52.956;4.772;2023-02-14T00:17:11;103673.25;;;5.48;100.00
55490;BME280;44029;52.956;4.772;2023-02-14T00:19:36;103675.56;;;5.43;100.00
55490;BME280;44029;52.956;4.772;2023-02-14T00:22:03;103666.09;;;5.47;100.00
55490;BME280;44029;52.956;4.772;2023-02-14T00:24:29;103663.66;;;5.44;100.00
55490;BME280;44029;52.956;4.772;2023-02-14T00:26:54;103666.97;;;5.38;100.00
55490;BME280;44029;52.956;4.772;2023-02-14T00:29:22;103664.06;;;5.49;100.00
55490;BME280;44029;52.956;4.772;2023-02-14T00:31:48;103656.38;;;5.35;100.00
55490;BME280;44029;52.956;4.772;2023-02-14T00:34:14;103666.69;;;5.41;100.00
55490;BME280;44029;52.956;4.772;2023-02-14T00:36:40;103660.69;;;5.37;100.00
55490;BME280;44029;52.956;4.772;2023-02-14T00:39:09;103657.22;;;5.45;100.00
55490;BME280;44029;52.956;4.772;2023-02-14T00:41:34;103668.97;;;5.36;100.00
55490;BME280;44029;52.956;4.772;2023-02-14T00:44:00;103664.09;;;5.39;100.00
55490;BME280;44029;52.956;4.772;2023-02-14T00:46:26;103655.66;;;5.33;100.00
55490;BME280;44029;52.956;4.772;2023-02-14T00:48:52;103650.53;;;5.30;100.00
55490;BME280;44029;52.956;4.772;2023-02-14T00:51:18;103661.81;;;5.35;100.00
55490;BME280;44029;52.956;4.772;2023-02-14T00:53:45;103657.13;;;5.37;100.00
55490;BME280;44029;52.956;4.772;2023-02-14T00:56:11;103649.53;;;5.31;100.00
55490;BME280;44029;52.956;4.772;2023-02-14T00:58:36;103665.13;;;5.29;100.00
55490;BME280;44029;52.956;4.772;2023-02-14T01:01:02;103660.53;;;5.29;100.00
55490;BME280;44029;52.956;4.772;2023-02-14T01:03:28;103660.41;;;5.31;100.00
55490;BME280;44029;52.956;4.772;2023-02-14T01:05:53;103653.69;;;5.25;100.00
55490;BME280;44029;52.956;4.772;2023-02-14T01:08:19;103660.56;;;5.19;100.00
55490;BME280;44029;52.956;4.772;2023-02-14T01:10:45;103658.69;;;5.20;100.00
55490;BME280;44029;52.956;4.772;2023-02-14T01:13:12;103653.69;;;5.15;100.00
55490;BME280;44029;52.956;4.772;2023-02-14T01:15:39;103653.69;;;5.25;100.00
55490;BME280;44029;52.956;4.772;2023-02-14T01:18:06;103659.41;;;5.12;100.00
55490;BME280;44029;52.956;4.772;2023-02-14T01:20:31;103656.72;;;5.02;100.00
55490;BME280;44029;52.956;4.772;2023-02-14T01:22:57;103660.72;;;5.08;100.00
55490;BME280;44029;52.956;4.772;2023-02-14T01:25:22;103656.56;;;5.04;100.00
55490;BME280;44029;52.956;4.772;2023-02-14T01:27:48;103653.84;;;5.04;100.00
55490;BME280;44029;52.956;4.772;2023-02-14T01:30:13;103649.28;;;5.04;100.00
55490;BME280;44029;52.956;4.772;2023-02-14T01:32:39;103645.56;;;4.96;100.00
55490;BME280;44029;52.956;4.772;2023-02-14T01:35:04;103647.28;;;4.97;100.00
55490;BME280;44029;52.956;4.772;2023-02-14T01:37:30;103646.00;;;5.01;100.00
55490;BME280;44029;52.956;4.772;2023-02-14T01:39:55;103644.56;;;4.97;100.00
55490;BME280;44029;52.956;4.772;2023-02-14T01:42:21;103643.84;;;4.95;100.00
55490;BME280;44029;52.956;4.772;2023-02-14T01:47:12;103645.56;;;4.96;100.00
55490;BME280;44029;52.956;4.772;2023-02-14T01:49:48;103638.53;;;5.03;100.00
55490;BME280;44029;52.956;4.772;2023-02-14T01:54:52;103638.53;;;5.03;100.00
55490;BME280;44029;52.956;4.772;2023-02-14T01:57:21;103635.84;;;4.93;100.00
55490;BME280;44029;52.956;4.772;2023-02-14T01:59:54;103635.81;;;5.03;100.00
55490;BME280;44029;52.956;4.772;2023-02-14T02:02:41;103635.53;;;4.87;100.00
55490;BME280;44029;52.956;4.772;2023-02-14T02:05:07;103637.16;;;4.79;100.00
55490;BME280;44029;52.956;4.772;2023-02-14T02:07:32;103632.56;;;4.80;100.00
55490;BME280;44029;52.956;4.772;2023-02-14T02:10:00;103620.41;;;4.84;100.00
55490;BME280;44029;52.956;4.772;2023-02-14T02:12:26;103630.56;;;4.72;100.00
55490;BME280;44029;52.956;4.772;2023-02-14T02:14:54;103618.69;;;4.83;100.00
55490;BME280;44029;52.956;4.772;2023-02-14T02:17:26;103626.69;;;4.65;100.00
55490;BME280;44029;52.956;4.772;2023-02-14T02:29:01;103621.69;;;4.90;100.00
55490;BME280;44029;52.956;4.772;2023-02-14T02:45:11;103621.13;;;4.67;100.00
55490;BME280;44029;52.956;4.772;2023-02-14T02:50:31;103628.00;;;4.71;100.00
55490;BME280;44029;52.956;4.772;2023-02-14T02:53:53;103627.81;;;4.62;100.00
55490;BME280;44029;52.956;4.772;2023-02-14T02:56:45;103624.69;;;4.57;100.00
55490;BME280;44029;52.956;4.772;2023-02-14T02:59:18;103624.53;;;4.59;100.00
55490;BME280;44029;52.956;4.772;2023-02-14T03:02:15;103620.97;;;4.68;100.00
55490;BME280;44029;52.956;4.772;2023-02-14T03:04:46;103616.69;;;4.56;100.00
55490;BME280;44029;52.956;4.772;2023-02-14T03:07:39;103617.81;;;4.43;100.00
55490;BME280;44029;52.956;4.772;2023-02-14T03:10:23;103611.53;;;4.62;100.00
55490;BME280;44029;52.956;4.772;2023-02-14T03:19:12;103611.53;;;4.62;100.00
55490;BME280;44029;52.956;4.772;2023-02-14T03:21:57;103611.66;;;4.51;100.00
55490;BME280;44029;52.956;4.772;2023-02-14T03:24:53;103608.25;;;4.49;100.00
55490;BME280;44029;52.956;4.772;2023-02-14T03:27:33;103601.25;;;4.56;100.00
55490;BME280;44029;52.956;4.772;2023-02-14T03:30:07;103604.09;;;4.45;100.00
55490;BME280;44029;52.956;4.772;2023-02-14T03:32:45;103604.09;;;4.45;100.00
55490;BME280;44029;52.956;4.772;2023-02-14T03:35:18;103599.66;;;4.34;100.00
55490;BME280;44029;52.956;4.772;2023-02-14T03:43:00;103587.97;;;4.43;100.00
55490;BME280;44029;52.956;4.772;2023-02-14T03:45:34;103586.94;;;4.25;100.00
55490;BME280;44029;52.956;4.772;2023-02-14T03:48:04;103592.53;;;4.33;100.00
55490;BME280;44029;52.956;4.772;2023-02-14T03:50:33;103588.97;;;4.42;100.00
55490;BME280;44029;52.956;4.772;2023-02-14T03:53:01;103588.22;;;4.40;100.00
55490;BME280;44029;52.956;4.772;2023-02-14T03:56:07;103592.66;;;4.41;100.00
55490;BME280;44029;52.956;4.772;2023-02-14T03:58:38;103590.09;;;4.30;100.00
55490;BME280;44029;52.956;4.772;2023-02-14T04:04:21;103587.19;;;4.22;100.00
55490;BME280;44029;52.956;4.772;2023-02-14T04:06:48;103581.03;;;4.00;100.00
55490;BME280;44029;52.956;4.772;2023-02-14T04:09:14;103575.03;;;3.97;100.00
55490;BME280;44029;52.956;4.772;2023-02-14T04:11:39;103581.31;;;4.07;100.00
55490;BME280;44029;52.956;4.772;2023-02-14T04:14:05;103571.75;;;4.13;100.00
55490;BME280;44029;52.956;4.772;2023-02-14T04:16:30;103577.75;;;4.06;100.00
55490;BME280;44029;52.956;4.772;2023-02-14T04:19:16;103573.63;;;4.12;100.00
55490;BME280;44029;52.956;4.772;2023-02-14T04:21:51;103575.63;;;4.20;100.00
55490;BME280;44029;52.956;4.772;2023-02-14T04:24:16;103579.19;;;4.11;100.00
55490;BME280;44029;52.956;4.772;2023-02-14T04:26:42;103578.34;;;4.10;100.00
55490;BME280;44029;52.956;4.772;2023-02-14T04:29:19;103573.50;;;4.23;100.00
55490;BME280;44029;52.956;4.772;2023-02-14T04:31:46;103571.75;;;4.13;100.00
55490;BME280;44029;52.956;4.772;2023-02-14T04:34:11;103566.34;;;4.13;100.00
55490;BME280;44029;52.956;4.772;2023-02-14T04:36:36;103563.78;;;4.11;100.00
55490;BME280;44029;52.956;4.772;2023-02-14T04:39:02;103560.06;;;4.12;100.00
55490;BME280;44029;52.956;4.772;2023-02-14T04:41:27;103569.34;;;4.10;100.00
55490;BME280;44029;52.956;4.772;2023-02-14T04:43:53;103565.78;;;4.09;100.00
55490;BME280;44029;52.956;4.772;2023-02-14T04:46:18;103566.34;;;4.13;100.00
55490;BME280;44029;52.956;4.772;2023-02-14T04:48:43;103569.63;;;4.06;100.00
55490;BME280;44029;52.956;4.772;2023-02-14T04:51:09;103570.59;;;3.96;100.00
55490;BME280;44029;52.956;4.772;2023-02-14T04:53:34;103565.47;;;4.02;100.00
55490;BME280;44029;52.956;4.772;2023-02-14T04:56:04;103572.06;;;4.00;100.00
55490;BME280;44029;52.956;4.772;2023-02-14T04:58:30;103569.59;;;3.97;100.00
55490;BME280;44029;52.956;4.772;2023-02-14T05:00:55;103574.75;;;4.00;100.00
55490;BME280;44029;52.956;4.772;2023-02-14T05:03:20;103577.03;;;4.04;100.00
55490;BME280;44029;52.956;4.772;2023-02-14T05:05:46;103570.47;;;3.97;100.00
55490;BME280;44029;52.956;4.772;2023-02-14T05:08:11;103569.59;;;3.87;100.00
55490;BME280;44029;52.956;4.772;2023-02-14T05:10:38;103572.56;;;3.84;100.00
55490;BME280;44029;52.956;4.772;2023-02-14T05:13:03;103566.16;;;3.85;100.00
55490;BME280;44029;52.956;4.772;2023-02-14T05:15:29;103566.56;;;3.90;100.00
55490;BME280;44029;52.956;4.772;2023-02-14T05:17:54;103565.16;;;3.86;100.00
55490;BME280;44029;52.956;4.772;2023-02-14T05:20:19;103566.56;;;3.90;100.00
55490;BME280;44029;52.956;4.772;2023-02-14T05:22:45;103569.16;;;3.92;100.00
55490;BME280;44029;52.956;4.772;2023-02-14T05:25:10;103561.88;;;3.92;100.00
55490;BME280;44029;52.956;4.772;2023-02-14T05:27:35;103563.16;;;3.88;100.00
55490;BME280;44029;52.956;4.772;2023-02-14T05:30:01;103569.75;;;3.95;100.00
55490;BME280;44029;52.956;4.772;2023-02-14T05:32:26;103554.47;;;3.94;100.00
55490;BME280;44029;52.956;4.772;2023-02-14T05:34:51;103563.59;;;3.93;100.00
55490;BME280;44029;52.956;4.772;2023-02-14T05:37:17;103570.41;;;3.78;100.00
55490;BME280;44029;52.956;4.772;2023-02-14T05:39:42;103565.72;;;3.80;100.00
55490;BME280;44029;52.956;4.772;2023-02-14T05:42:07;103566.69;;;3.79;100.00
55490;BME280;44029;52.956;4.772;2023-02-14T05:44:33;103567.13;;;3.74;100.00
55490;BME280;44029;52.956;4.772;2023-02-14T05:46:58;103573.84;;;3.80;100.00
55490;BME280;44029;52.956;4.772;2023-02-14T05:49:23;103575.13;;;3.76;100.00
55490;BME280;44029;52.956;4.772;2023-02-14T05:51:49;103570.13;;;3.81;100.00
55490;BME280;44029;52.956;4.772;2023-02-14T05:54:14;103569.69;;;3.76;100.00
55490;BME280;44029;52.956;4.772;2023-02-14T05:56:39;103567.16;;;3.84;100.00
55490;BME280;44029;52.956;4.772;2023-02-14T05:59:05;103570.69;;;3.75;100.00
55490;BME280;44029;52.956;4.772;2023-02-14T06:01:30;103571.13;;;3.80;100.00
55490;BME280;44029;52.956;4.772;2023-02-14T06:03:56;103569.97;;;3.73;100.00
55490;BME280;44029;52.956;4.772;2023-02-14T06:06:21;103569.84;;;3.74;100.00
55490;BME280;44029;52.956;4.772;2023-02-14T06:08:46;103567.53;;;3.70;100.00
55490;BME280;44029;52.956;4.772;2023-02-14T06:11:12;103566.25;;;3.74;100.00
55490;BME280;44029;52.956;4.772;2023-02-14T06:13:37;103572.69;;;3.73;100.00
55490;BME280;44029;52.956;4.772;2023-02-14T06:16:04;103571.25;;;3.68;100.00
55490;BME280;44029;52.956;4.772;2023-02-14T06:18:30;103570.53;;;3.66;100.00
55490;BME280;44029;52.956;4.772;2023-02-14T06:20:55;103567.66;;;3.68;100.00
55490;BME280;44029;52.956;4.772;2023-02-14T06:23:21;103566.66;;;3.59;100.00
55490;BME280;44029;52.956;4.772;2023-02-14T06:25:46;103559.91;;;3.54;100.00
55490;BME280;44029;52.956;4.772;2023-02-14T06:28:12;103563.22;;;3.57;100.00
55490;BME280;44029;52.956;4.772;2023-02-14T06:30:37;103565.03;;;3.57;100.00
55490;BME280;44029;52.956;4.772;2023-02-14T06:33:02;103567.50;;;3.60;100.00
55490;BME280;44029;52.956;4.772;2023-02-14T06:35:28;103565.94;;;3.57;100.00
55490;BME280;44029;52.956;4.772;2023-02-14T06:37:53;103564.22;;;3.66;100.00
55490;BME280;44029;52.956;4.772;2023-02-14T06:40:19;103564.31;;;3.55;100.00
55490;BME280;44029;52.956;4.772;2023-02-14T06:42:44;103570.91;;;3.62;100.00
55490;BME280;44029;52.956;4.772;2023-02-14T06:45:10;103566.06;;;3.56;100.00
55490;BME280;44029;52.956;4.772;2023-02-14T06:47:35;103567.94;;;3.65;100.00
55490;BME280;44029;52.956;4.772;2023-02-14T06:50:01;103563.09;;;3.68;100.00
55490;BME280;44029;52.956;4.772;2023-02-14T06:52:29;103570.94;;;3.72;100.00
55490;BME280;44029;52.956;4.772;2023-02-14T06:54:55;103572.88;;;3.91;100.00
55490;BME280;44029;52.956;4.772;2023-02-14T06:57:20;103567.16;;;3.94;100.00
55490;BME280;44029;52.956;4.772;2023-02-14T06:59:45;103577.13;;;3.83;100.00
55490;BME280;44029;52.956;4.772;2023-02-14T07:02:10;103570.25;;;3.79;100.00
55490;BME280;44029;52.956;4.772;2023-02-14T07:04:36;103567.38;;;3.71;100.00
55490;BME280;44029;52.956;4.772;2023-02-14T07:07:01;103573.94;;;3.68;100.00
55490;BME280;44029;52.956;4.772;2023-02-14T07:09:27;103574.09;;;3.67;100.00
55490;BME280;44029;52.956;4.772;2023-02-14T07:11:52;103565.38;;;3.63;100.00
55490;BME280;44029;52.956;4.772;2023-02-14T07:14:17;103567.53;;;3.70;100.00
55490;BME280;44029;52.956;4.772;2023-02-14T07:16:43;103556.97;;;3.66;100.00
55490;BME280;44029;52.956;4.772;2023-02-14T07:19:08;103560.81;;;3.74;100.00
55490;BME280;44029;52.956;4.772;2023-02-14T07:21:34;103559.00;;;3.74;100.00
55490;BME280;44029;52.956;4.772;2023-02-14T07:23:59;103560.88;;;3.93;100.00
55490;BME280;44029;52.956;4.772;2023-02-14T07:26:24;103562.00;;;3.81;100.00
55490;BME280;44029;52.956;4.772;2023-02-14T07:28:50;103560.00;;;3.83;100.00
55490;BME280;44029;52.956;4.772;2023-02-14T07:31:16;103559.16;;;3.92;100.00
55490;BME280;44029;52.956;4.772;2023-02-14T07:33:42;103557.56;;;3.80;100.00
55490;BME280;44029;52.956;4.772;2023-02-14T07:36:08;103560.88;;;3.93;100.00
55490;BME280;44029;52.956;4.772;2023-02-14T07:38:34;103549.78;;;3.96;100.00
55490;BME280;44029;52.956;4.772;2023-02-14T07:41:00;103551.00;;;3.73;100.00
55490;BME280;44029;52.956;4.772;2023-02-14T07:43:26;103554.16;;;3.78;100.00
55490;BME280;44029;52.956;4.772;2023-02-14T07:45:51;103550.63;;;3.97;100.00
55490;BME280;44029;52.956;4.772;2023-02-14T07:48:16;103552.38;;;4.17;100.00
55490;BME280;44029;52.956;4.772;2023-02-14T07:50:42;103558.81;;;4.26;100.00
55490;BME280;44029;52.956;4.772;2023-02-14T07:53:07;103556.94;;;4.17;100.00
55490;BME280;44029;52.956;4.772;2023-02-14T07:55:33;103549.66;;;4.27;100.00
55490;BME280;44029;52.956;4.772;2023-02-14T07:57:59;103552.53;;;4.35;100.00
55490;BME280;44029;52.956;4.772;2023-02-14T08:00:25;103558.22;;;4.42;100.00
55490;BME280;44029;52.956;4.772;2023-02-14T08:02:50;103559.09;;;4.72;100.00
55490;BME280;44029;52.956;4.772;2023-02-14T08:05:16;103556.22;;;4.83;100.00
55490;BME280;44029;52.956;4.772;2023-02-14T08:07:41;103543.94;;;4.89;100.00
55490;BME280;44029;52.956;4.772;2023-02-14T08:10:08;103543.16;;;5.06;100.00
55490;BME280;44029;52.956;4.772;2023-02-14T08:12:33;103539.28;;;5.18;100.00
55490;BME280;44029;52.956;4.772;2023-02-14T08:15:17;103532.34;;;5.34;100.00
55490;BME280;44029;52.956;4.772;2023-02-14T08:18:01;103529.34;;;5.37;100.00
55490;BME280;44029;52.956;4.772;2023-02-14T08:20:26;103531.47;;;5.06;100.00
55490;BME280;44029;52.956;4.772;2023-02-14T08:22:52;103523.16;;;4.97;100.00
55490;BME280;44029;52.956;4.772;2023-02-14T08:25:18;103522.88;;;5.00;100.00
55490;BME280;44029;52.956;4.772;2023-02-14T08:27:43;103531.06;;;4.91;100.00
55490;BME280;44029;52.956;4.772;2023-02-14T08:30:08;103526.03;;;5.06;100.00
55490;BME280;44029;52.956;4.772;2023-02-14T08:32:34;103527.16;;;5.03;100.00
55490;BME280;44029;52.956;4.772;2023-02-14T08:34:59;103535.59;;;5.10;100.00
55490;BME280;44029;52.956;4.772;2023-02-14T08:37:25;103531.69;;;5.22;100.00
55490;BME280;44029;52.956;4.772;2023-02-14T08:39:50;103523.50;;;5.32;100.00
55490;BME280;44029;52.956;4.772;2023-02-14T08:42:15;103532.16;;;5.45;100.00
55490;BME280;44029;52.956;4.772;2023-02-14T08:44:41;103526.53;;;5.84;100.00
55490;BME280;44029;52.956;4.772;2023-02-14T08:47:06;103531.41;;;5.80;100.00
55490;BME280;44029;52.956;4.772;2023-02-14T08:49:31;103521.22;;;6.10;100.00
55490;BME280;44029;52.956;4.772;2023-02-14T08:51:56;103529.94;;;6.14;100.00
55490;BME280;44029;52.956;4.772;2023-02-14T08:54:22;103522.09;;;6.11;100.00
55490;BME280;44029;52.956;4.772;2023-02-14T08:56:47;103516.56;;;6.03;100.00
55490;BME280;44029;52.956;4.772;2023-02-14T08:59:13;103527.03;;;5.97;100.00
55490;BME280;44029;52.956;4.772;2023-02-14T09:01:38;103517.75;;;5.90;100.00
55490;BME280;44029;52.956;4.772;2023-02-14T09:04:03;103529.94;;;5.86;100.00
55490;BME280;44029;52.956;4.772;2023-02-14T09:06:29;103519.91;;;5.96;100.00
55490;BME280;44029;52.956;4.772;2023-02-14T09:08:54;103525.81;;;6.10;100.00
55490;BME280;44029;52.956;4.772;2023-02-14T09:11:22;103527.28;;;6.04;100.00
55490;BME280;44029;52.956;4.772;2023-02-14T09:13:50;103509.56;;;5.90;100.00
55490;BME280;44029;52.956;4.772;2023-02-14T09:16:16;103513.13;;;6.00;100.00
55490;BME280;44029;52.956;4.772;2023-02-14T09:18:42;103524.41;;;6.06;100.00
55490;BME280;44029;52.956;4.772;2023-02-14T09:21:16;103522.88;;;6.21;100.00
55490;BME280;44029;52.956;4.772;2023-02-14T09:23:42;103522.94;;;6.11;100.00
55490;BME280;44029;52.956;4.772;2023-02-14T09:26:09;103528.31;;;6.21;100.00
55490;BME280;44029;52.956;4.772;2023-02-14T09:28:35;103517.88;;;6.34;100.00
55490;BME280;44029;52.956;4.772;2023-02-14T09:31:13;103526.91;;;6.53;100.00
55490;BME280;44029;52.956;4.772;2023-02-14T09:33:40;103518.81;;;6.61;100.00
55490;BME280;44029;52.956;4.772;2023-02-14T09:36:06;103523.91;;;6.64;100.00
55490;BME280;44029;52.956;4.772;2023-02-14T09:38:44;103516.22;;;6.77;100.00
55490;BME280;44029;52.956;4.772;2023-02-14T09:44:01;103522.47;;;6.96;100.00
55490;BME280;44029;52.956;4.772;2023-02-14T09:46:30;103515.34;;;7.03;100.00
55490;BME280;44029;52.956;4.772;2023-02-14T09:49:01;103518.72;;;6.97;100.00
55490;BME280;44029;52.956;4.772;2023-02-14T09:51:28;103516.75;;;7.07;100.00
55490;BME280;44029;52.956;4.772;2023-02-14T09:54:07;103512.28;;;7.32;100.00
55490;BME280;44029;52.956;4.772;2023-02-14T09:57:19;103507.03;;;7.39;100.00
55490;BME280;44029;52.956;4.772;2023-02-14T10:02:58;103505.91;;;7.50;100.00
55490;BME280;44029;52.956;4.772;2023-02-14T10:05:32;103506.25;;;7.55;100.00
55490;BME280;44029;52.956;4.772;2023-02-14T10:10:37;103503.50;;;7.55;100.00
55490;BME280;44029;52.956;4.772;2023-02-14T10:13:21;103509.91;;;7.80;100.00
55490;BME280;44029;52.956;4.772;2023-02-14T10:16:02;103502.09;;;7.85;100.00
55490;BME280;44029;52.956;4.772;2023-02-14T10:18:45;103499.03;;;7.88;100.00
55490;BME280;44029;52.956;4.772;2023-02-14T10:21:24;103500.94;;;7.96;100.00
55490;BME280;44029;52.956;4.772;2023-02-14T10:27:35;103513.41;;;8.15;100.00
55490;BME280;44029;52.956;4.772;2023-02-14T10:30:12;103513.78;;;8.28;100.00
55490;BME280;44029;52.956;4.772;2023-02-14T10:32:47;103515.47;;;8.38;100.00
55490;BME280;44029;52.956;4.772;2023-02-14T10:38:04;103514.50;;;8.55;100.00
55490;BME280;44029;52.956;4.772;2023-02-14T10:43:42;103510.56;;;8.58;100.00
55490;BME280;44029;52.956;4.772;2023-02-14T10:51:48;103513.47;;;8.73;100.00
55490;BME280;44029;52.956;4.772;2023-02-14T10:56:44;103507.31;;;8.79;100.00
55490;BME280;44029;52.956;4.772;2023-02-14T10:59:20;103495.34;;;8.88;100.00
55490;BME280;44029;52.956;4.772;2023-02-14T11:01:48;103492.28;;;8.83;100.00
55490;BME280;44029;52.956;4.772;2023-02-14T11:04:15;103495.69;;;8.93;100.00
55490;BME280;44029;52.956;4.772;2023-02-14T11:06:42;103491.94;;;8.86;100.00
55490;BME280;44029;52.956;4.772;2023-02-14T11:09:09;103487.94;;;9.05;100.00
55490;BME280;44029;52.956;4.772;2023-02-14T11:11:47;103485.03;;;9.15;100.00
55490;BME280;44029;52.956;4.772;2023-02-14T11:16:53;103474.56;;;9.26;100.00
55490;BME280;44029;52.956;4.772;2023-02-14T11:21:45;103466.13;;;9.44;100.00
55490;BME280;44029;52.956;4.772;2023-02-14T11:26:53;103453.09;;;9.46;100.00
55490;BME280;44029;52.956;4.772;2023-02-14T11:29:32;103437.94;;;9.67;100.00
55490;BME280;44029;52.956;4.772;2023-02-14T11:32:15;103441.25;;;9.85;100.00
55490;BME280;44029;52.956;4.772;2023-02-14T11:34:52;103438.81;;;9.91;100.00
55490;BME280;44029;52.956;4.772;2023-02-14T11:39:50;103430.84;;;9.81;100.00
55490;BME280;44029;52.956;4.772;2023-02-14T11:45:00;103422.31;;;9.76;100.00
55490;BME280;44029;52.956;4.772;2023-02-14T11:47:28;103423.72;;;9.95;100.00
55490;BME280;44029;52.956;4.772;2023-02-14T11:50:22;103423.91;;;9.93;100.00
55490;BME280;44029;52.956;4.772;2023-02-14T11:52:52;103422.22;;;9.92;100.00
55490;BME280;44029;52.956;4.772;2023-02-14T11:55:36;103410.66;;;10.05;100.00
55490;BME280;44029;52.956;4.772;2023-02-14T11:58:04;103411.94;;;9.94;100.00
55490;BME280;44029;52.956;4.772;2023-02-14T12:00:30;103416.19;;;9.97;100.00
55490;BME280;44029;52.956;4.772;2023-02-14T12:02:57;103398.72;;;9.98;100.00
55490;BME280;44029;52.956;4.772;2023-02-14T12:05:27;103396.34;;;9.95;100.00
55490;BME280;44029;52.956;4.772;2023-02-14T12:07:54;103399.78;;;10.12;100.00
55490;BME280;44029;52.956;4.772;2023-02-14T12:12:52;103392.63;;;10.11;100.00
55490;BME280;44029;52.956;4.772;2023-02-14T12:15:38;103383.72;;;10.32;100.00
55490;BME280;44029;52.956;4.772;2023-02-14T12:21:23;103378.63;;;10.43;100.00
55490;BME280;44029;52.956;4.772;2023-02-14T12:26:48;103368.19;;;10.24;100.00
55490;BME280;44029;52.956;4.772;2023-02-14T12:29:31;103361.28;;;10.51;100.00
55490;BME280;44029;52.956;4.772;2023-02-14T12:32:28;103364.56;;;10.32;100.00
55490;BME280;44029;52.956;4.772;2023-02-14T12:35:04;103362.50;;;10.11;100.00
55490;BME280;44029;52.956;4.772;2023-02-14T12:40:56;103352.31;;;9.81;100.00
55490;BME280;44029;52.956;4.772;2023-02-14T12:43:56;103356.44;;;9.77;100.00
55490;BME280;44029;52.956;4.772;2023-02-14T12:46:45;103356.72;;;10.05;100.00
55490;BME280;44029;52.956;4.772;2023-02-14T12:52:24;103358.38;;;9.92;100.00
55490;BME280;44029;52.956;4.772;2023-02-14T12:57:55;103347.13;;;9.86;100.00
55490;BME280;44029;52.956;4.772;2023-02-14T13:03:07;103353.75;;;9.92;100.00
55490;BME280;44029;52.956;4.772;2023-02-14T13:05:57;103352.53;;;9.95;100.00
55490;BME280;44029;52.956;4.772;2023-02-14T13:11:29;103352.66;;;10.01;100.00
55490;BME280;44029;52.956;4.772;2023-02-14T13:16:59;103334.16;;;9.80;100.00
55490;BME280;44029;52.956;4.772;2023-02-14T13:22:05;103334.78;;;9.91;100.00
55490;BME280;44029;52.956;4.772;2023-02-14T13:24:39;103331.50;;;10.10;100.00
55490;BME280;44029;52.956;4.772;2023-02-14T13:27:10;103322.25;;;10.11;100.00
55490;BME280;44029;52.956;4.772;2023-02-14T13:29:58;103321.44;;;10.25;100.00
55490;BME280;44029;52.956;4.772;2023-02-14T13:32:30;103321.31;;;10.19;100.00
55490;BME280;44029;52.956;4.772;2023-02-14T13:34:57;103315.22;;;9.94;100.00
55490;BME280;44029;52.956;4.772;2023-02-14T13:37:24;103313.34;;;9.94;100.00
55490;BME280;44029;52.956;4.772;2023-02-14T13:39:55;103304.84;;;9.66;100.00
55490;BME280;44029;52.956;4.772;2023-02-14T13:48:14;103310.16;;;9.44;100.00
55490;BME280;44029;52.956;4.772;2023-02-14T13:56:28;103306.13;;;9.32;100.00
55490;BME280;44029;52.956;4.772;2023-02-14T13:58:55;103293.59;;;9.15;100.00
55490;BME280;44029;52.956;4.772;2023-02-14T14:01:39;103295.53;;;9.29;100.00
55490;BME280;44029;52.956;4.772;2023-02-14T14:17:30;103278.25;;;9.75;100.00
55490;BME280;44029;52.956;4.772;2023-02-14T14:19:56;103269.09;;;9.67;100.00
55490;BME280;44029;52.956;4.772;2023-02-14T14:22:23;103265.25;;;9.77;100.00
55490;BME280;44029;52.956;4.772;2023-02-14T14:25:04;103262.34;;;9.93;100.00
55490;BME280;44029;52.956;4.772;2023-02-14T14:27:45;103271.03;;;9.97;100.00
55490;BME280;44029;52.956;4.772;2023-02-14T14:30:21;103263.97;;;10.02;100.00
55490;BME280;44029;52.956;4.772;2023-02-14T14:32:48;103268.66;;;9.94;100.00
55490;BME280;44029;52.956;4.772;2023-02-14T14:37:55;103250.56;;;10.07;100.00
55490;BME280;44029;52.956;4.772;2023-02-14T14:40:30;103257.94;;;10.07;100.00
55490;BME280;44029;52.956;4.772;2023-02-14T14:43:08;103250.75;;;10.06;100.00
55490;BME280;44029;52.956;4.772;2023-02-14T14:45:36;103245.91;;;9.93;100.00
55490;BME280;44029;52.956;4.772;2023-02-14T14:48:08;103251.81;;;10.05;100.00
55490;BME280;44029;52.956;4.772;2023-02-14T14:50:35;103251.50;;;10.00;100.00
55490;BME280;44029;52.956;4.772;2023-02-14T14:53:13;103254.91;;;10.02;100.00
55490;BME280;44029;52.956;4.772;2023-02-14T14:55:44;103242.03;;;9.87;100.00
55490;BME280;44029;52.956;4.772;2023-02-14T15:01:01;103245.75;;;9.95;100.00
55490;BME280;44029;52.956;4.772;2023-02-14T15:03:28;103245.84;;;9.86;100.00
55490;BME280;44029;52.956;4.772;2023-02-14T15:06:19;103245.84;;;9.86;100.00
55490;BME280;44029;52.956;4.772;2023-02-14T15:08:44;103256.66;;;9.80;100.00
55490;BME280;44029;52.956;4.772;2023-02-14T15:11:20;103246.69;;;9.87;100.00
55490;BME280;44029;52.956;4.772;2023-02-14T15:14:09;103246.22;;;9.98;100.00
55490;BME280;44029;52.956;4.772;2023-02-14T15:16:47;103241.50;;;9.92;100.00
55490;BME280;44029;52.956;4.772;2023-02-14T15:21:58;103249.16;;;9.59;100.00
55490;BME280;44029;52.956;4.772;2023-02-14T15:24:24;103247.84;;;9.70;100.00
55490;BME280;44029;52.956;4.772;2023-02-14T15:26:50;103250.56;;;9.55;100.00
55490;BME280;44029;52.956;4.772;2023-02-14T15:29:22;103251.38;;;9.78;100.00
55490;BME280;44029;52.956;4.772;2023-02-14T15:31:48;103248.72;;;9.70;100.00